createdAt,value
2023-01-26T00:00:57.961Z,11.00
2023-01-26T00:02:01.773Z,11.25
2023-01-26T00:03:05.452Z,10.50
2023-01-26T00:04:09.292Z,11.00
2023-01-26T00:05:13.137Z,11.50
2023-01-26T00:06:17.097Z,10.25
2023-01-26T00:07:25.825Z,11.50
2023-01-26T00:08:36.132Z,11.25
2023-01-26T00:09:44.866Z,11.50
2023-01-26T00:10:50.792Z,11.50
2023-01-26T00:11:54.292Z,10.25
2023-01-26T00:12:59.134Z,11.00
2023-01-26T00:14:06.220Z,10.50
2023-01-26T00:15:15.775Z,11.75
2023-01-26T00:16:21.809Z,12.50
2023-01-26T00:17:28.271Z,14.00
2023-01-26T00:18:32.181Z,13.75
2023-01-26T00:19:36.191Z,14.00
2023-01-26T00:20:40.042Z,14.00
2023-01-26T00:21:43.783Z,13.00
2023-01-26T00:22:47.600Z,12.00
2023-01-26T00:23:51.781Z,11.50
2023-01-26T00:24:55.724Z,12.50
2023-01-26T00:25:59.611Z,13.50
2023-01-26T00:27:03.483Z,12.25
2023-01-26T00:28:07.263Z,13.20
2023-01-26T00:29:11.040Z,13.00
2023-01-26T00:30:14.907Z,13.00
2023-01-26T00:31:18.847Z,14.00
2023-01-26T00:32:23.159Z,14.00
2023-01-26T00:33:26.952Z,12.25
2023-01-26T00:34:30.630Z,13.50
2023-01-26T00:35:34.541Z,14.75
2023-01-26T00:36:38.543Z,15.50
2023-01-26T00:37:42.193Z,16.00
2023-01-26T00:38:46.014Z,14.25
2023-01-26T00:39:49.772Z,16.00
2023-01-26T00:40:53.696Z,17.00
2023-01-26T00:41:57.505Z,15.00
2023-01-26T00:43:01.219Z,15.25
2023-01-26T00:44:05.341Z,15.75
2023-01-26T00:45:08.892Z,14.00
2023-01-26T00:46:12.509Z,14.25
2023-01-26T00:47:16.161Z,15.50
2023-01-26T00:48:19.837Z,15.50
2023-01-26T00:49:23.346Z,16.50
2023-01-26T00:50:26.813Z,15.50
2023-01-26T00:51:34.791Z,14.75
2023-01-26T00:52:39.938Z,15.00
2023-01-26T00:55:05.364Z,13.25
2023-01-26T00:56:08.885Z,13.50
2023-01-26T00:57:12.588Z,14.00
2023-01-26T00:58:16.408Z,15.50
2023-01-26T00:59:20.048Z,15.50
2023-01-26T01:00:26.934Z,15.25
2023-01-26T01:01:30.970Z,15.50
2023-01-26T01:02:34.673Z,17.00
2023-01-26T01:03:38.161Z,15.50
2023-01-26T01:04:41.767Z,14.50
2023-01-26T01:05:45.501Z,16.00
2023-01-26T01:06:49.099Z,14.50
2023-01-26T01:07:52.710Z,14.50
2023-01-26T01:08:56.380Z,16.33
2023-01-26T01:09:59.969Z,15.25
2023-01-26T01:11:04.091Z,14.50
2023-01-26T01:12:07.449Z,13.50
2023-01-26T01:13:11.054Z,14.00
2023-01-26T01:14:14.763Z,15.50
2023-01-26T01:15:18.323Z,16.00
2023-01-26T01:16:21.794Z,14.25
2023-01-26T01:17:25.579Z,14.00
2023-01-26T01:18:29.200Z,13.50
2023-01-26T01:19:32.777Z,13.25
2023-01-26T01:20:36.434Z,14.25
2023-01-26T01:21:40.020Z,15.00
2023-01-26T01:22:43.750Z,15.00
2023-01-26T01:23:47.345Z,14.50
2023-01-26T01:24:53.899Z,14.00
2023-01-26T01:25:57.660Z,14.50
2023-01-26T01:27:01.524Z,14.00
2023-01-26T01:28:05.005Z,14.00
2023-01-26T01:29:08.840Z,14.75
2023-01-26T01:30:12.811Z,14.75
2023-01-26T01:31:16.628Z,14.25
2023-01-26T01:32:20.240Z,16.25
2023-01-26T01:33:23.830Z,16.25
2023-01-26T01:34:27.783Z,14.50
2023-01-26T01:35:31.354Z,14.00
2023-01-26T01:36:34.963Z,15.75
2023-01-26T01:37:38.510Z,13.50
2023-01-26T01:38:46.147Z,14.00
2023-01-26T01:39:50.030Z,15.00
2023-01-26T01:40:57.991Z,16.00
2023-01-26T01:42:01.265Z,15.50
2023-01-26T01:43:04.766Z,14.75
2023-01-26T01:44:09.514Z,14.25
2023-01-26T01:45:13.127Z,13.75
2023-01-26T01:46:16.592Z,13.00
2023-01-26T01:47:30.987Z,11.50
2023-01-26T01:48:34.132Z,13.00
2023-01-26T01:49:37.953Z,13.75
2023-01-26T01:50:41.575Z,14.75
2023-01-26T01:51:45.035Z,15.00
2023-01-26T01:52:48.733Z,14.00
2023-01-26T01:53:52.370Z,13.50
2023-01-26T01:54:55.920Z,14.00
2023-01-26T01:55:59.666Z,14.50
2023-01-26T01:57:03.231Z,12.00
2023-01-26T01:58:06.951Z,13.00
2023-01-26T01:59:10.629Z,13.00
2023-01-26T02:00:14.340Z,13.50
2023-01-26T02:01:17.935Z,12.50
2023-01-26T02:02:21.601Z,12.50
2023-01-26T02:03:25.484Z,14.25
2023-01-26T02:04:29.236Z,14.00
2023-01-26T02:05:33.226Z,14.50
2023-01-26T02:06:36.898Z,13.50
2023-01-26T02:07:40.387Z,12.50
2023-01-26T02:08:43.926Z,12.50
2023-01-26T02:09:47.588Z,12.75
2023-01-26T02:10:51.380Z,11.50
2023-01-26T02:11:54.889Z,10.50
2023-01-26T02:12:58.502Z,12.25
2023-01-26T02:14:02.162Z,13.50
2023-01-26T02:15:06.209Z,12.75
2023-01-26T02:16:09.810Z,11.75
2023-01-26T02:17:13.650Z,13.00
2023-01-26T02:18:17.463Z,12.25
2023-01-26T02:19:21.109Z,12.00
2023-01-26T02:20:24.813Z,12.00
2023-01-26T02:21:28.726Z,12.50
2023-01-26T02:22:32.445Z,11.25
2023-01-26T02:23:35.963Z,12.25
2023-01-26T02:24:39.488Z,12.00
2023-01-26T02:25:44.194Z,12.00
2023-01-26T02:26:48.101Z,12.25
2023-01-26T02:27:51.753Z,13.50
2023-01-26T02:28:55.955Z,12.75
2023-01-26T02:29:59.517Z,13.25
2023-01-26T02:31:03.243Z,13.00
2023-01-26T02:32:07.176Z,13.00
2023-01-26T02:33:11.002Z,12.50
2023-01-26T02:34:14.596Z,12.00
2023-01-26T02:35:18.151Z,12.00
2023-01-26T02:36:21.859Z,12.00
2023-01-26T02:37:25.695Z,13.00
2023-01-26T02:38:29.463Z,12.00
2023-01-26T02:39:32.962Z,12.50
2023-01-26T02:40:36.667Z,13.00
2023-01-26T02:41:40.152Z,14.25
2023-01-26T02:42:43.766Z,14.50
2023-01-26T02:43:47.305Z,13.00
2023-01-26T02:44:50.939Z,11.50
2023-01-26T02:45:54.401Z,12.50
2023-01-26T02:46:57.928Z,13.50
2023-01-26T02:48:01.375Z,13.00
2023-01-26T02:49:04.925Z,12.75
2023-01-26T02:50:08.652Z,13.25
2023-01-26T02:51:12.303Z,12.75
2023-01-26T02:52:16.034Z,14.75
2023-01-26T02:53:19.647Z,15.00
2023-01-26T02:54:23.247Z,14.50
2023-01-26T02:55:26.771Z,12.75
2023-01-26T02:56:30.373Z,13.00
2023-01-26T02:57:37.495Z,14.75
2023-01-26T02:58:41.175Z,15.50
2023-01-26T02:59:44.669Z,14.00
2023-01-26T03:00:48.474Z,15.00
2023-01-26T03:01:52.276Z,15.00
2023-01-26T03:02:55.838Z,15.00
2023-01-26T03:03:59.376Z,14.50
2023-01-26T03:05:03.265Z,15.00
2023-01-26T03:06:07.188Z,15.33
2023-01-26T03:07:10.701Z,14.00
2023-01-26T03:08:14.317Z,13.25
2023-01-26T03:09:17.812Z,14.50
2023-01-26T03:10:21.390Z,13.50
2023-01-26T03:11:25.008Z,13.25
2023-01-26T03:12:28.659Z,13.00
2023-01-26T03:13:32.620Z,14.50
2023-01-26T03:14:36.420Z,15.25
2023-01-26T03:15:40.113Z,17.00
2023-01-26T03:16:43.732Z,18.00
2023-01-26T03:17:47.612Z,15.00
2023-01-26T03:18:51.379Z,14.50
2023-01-26T03:19:54.883Z,16.75
2023-01-26T03:20:58.871Z,17.00
2023-01-26T03:22:02.356Z,16.25
2023-01-26T03:23:06.043Z,15.00
2023-01-26T03:24:09.997Z,15.25
2023-01-26T03:25:13.634Z,16.00
2023-01-26T03:26:17.274Z,16.00
2023-01-26T03:27:20.744Z,15.50
2023-01-26T03:28:24.354Z,14.50
2023-01-26T03:29:31.686Z,15.50
2023-01-26T03:30:35.326Z,15.00
2023-01-26T03:31:38.977Z,16.25
2023-01-26T03:32:42.542Z,16.00
2023-01-26T03:33:45.979Z,14.50
2023-01-26T03:34:49.543Z,15.00
2023-01-26T03:35:53.067Z,15.75
2023-01-26T03:36:56.578Z,18.00
2023-01-26T03:38:00.293Z,17.50
2023-01-26T03:39:04.090Z,16.50
2023-01-26T03:40:07.626Z,14.75
2023-01-26T03:41:11.208Z,14.00
2023-01-26T03:42:15.993Z,14.00
2023-01-26T03:43:19.543Z,13.25
2023-01-26T03:44:23.312Z,14.00
2023-01-26T03:45:26.907Z,14.50
2023-01-26T03:46:30.697Z,14.00
2023-01-26T03:47:34.397Z,15.50
2023-01-26T03:48:38.047Z,15.50
2023-01-26T03:49:41.742Z,14.00
2023-01-26T03:50:45.255Z,14.25
2023-01-26T03:51:48.784Z,15.00
2023-01-26T03:52:52.285Z,15.25
2023-01-26T03:53:55.837Z,14.50
2023-01-26T03:54:59.412Z,13.75
2023-01-26T03:56:03.271Z,15.50
2023-01-26T03:57:06.829Z,16.00
2023-01-26T03:58:10.598Z,15.50
2023-01-26T03:59:14.417Z,15.50
2023-01-26T04:00:30.798Z,14.00
2023-01-26T04:01:34.570Z,13.50
2023-01-26T04:02:38.217Z,15.50
2023-01-26T04:03:42.175Z,15.00
2023-01-26T04:04:45.831Z,15.50
2023-01-26T04:05:49.756Z,15.75
2023-01-26T04:06:53.255Z,14.00
2023-01-26T04:07:56.853Z,15.25
2023-01-26T04:09:00.363Z,14.50
2023-01-26T04:10:04.275Z,15.00
2023-01-26T04:11:07.816Z,16.50
2023-01-26T04:12:11.270Z,16.00
2023-01-26T04:13:15.035Z,15.75
2023-01-26T04:14:18.635Z,14.75
2023-01-26T04:15:22.127Z,15.50
2023-01-26T04:16:25.803Z,16.00
2023-01-26T04:17:30.573Z,17.00
2023-01-26T04:18:34.212Z,17.00
2023-01-26T04:19:37.738Z,15.75
2023-01-26T04:20:41.293Z,14.75
2023-01-26T04:21:44.725Z,15.75
2023-01-26T04:22:48.639Z,16.00
2023-01-26T04:23:52.186Z,16.25
2023-01-26T04:24:56.030Z,16.50
2023-01-26T04:25:59.690Z,15.00
2023-01-26T04:27:03.435Z,16.00
2023-01-26T04:28:07.282Z,15.50
2023-01-26T04:29:11.041Z,16.00
2023-01-26T04:30:14.590Z,14.50
2023-01-26T04:31:18.546Z,16.00
2023-01-26T04:32:22.264Z,17.75
2023-01-26T04:33:25.731Z,17.00
2023-01-26T04:34:29.401Z,16.50
2023-01-26T04:35:33.153Z,16.50
2023-01-26T04:36:36.704Z,17.25
2023-01-26T04:37:40.416Z,15.80
2023-01-26T04:38:44.124Z,16.50
2023-01-26T04:39:47.649Z,17.50
2023-01-26T04:40:51.224Z,17.00
2023-01-26T04:41:54.608Z,18.50
2023-01-26T04:42:58.556Z,19.00
2023-01-26T04:44:02.278Z,18.50
2023-01-26T04:45:05.756Z,18.50
2023-01-26T04:46:09.312Z,16.50
2023-01-26T04:47:12.793Z,16.75
2023-01-26T04:48:16.234Z,17.75
2023-01-26T04:49:19.933Z,19.75
2023-01-26T04:50:23.490Z,22.00
2023-01-26T04:51:27.073Z,20.50
2023-01-26T04:52:30.956Z,19.50
2023-01-26T04:53:34.444Z,19.75
2023-01-26T04:54:41.175Z,18.75
2023-01-26T04:55:44.708Z,16.75
2023-01-26T04:56:48.331Z,18.00
2023-01-26T04:57:51.994Z,18.00
2023-01-26T04:58:55.524Z,15.75
2023-01-26T04:59:59.051Z,16.75
2023-01-26T05:01:02.619Z,17.75
2023-01-26T05:02:06.154Z,18.50
2023-01-26T05:03:10.423Z,16.25
2023-01-26T05:04:14.299Z,17.00
2023-01-26T05:05:18.308Z,19.00
2023-01-26T05:06:21.825Z,19.00
2023-01-26T05:07:25.290Z,19.00
2023-01-26T05:08:28.771Z,20.25
2023-01-26T05:09:32.810Z,19.50
2023-01-26T05:10:36.627Z,19.00
2023-01-26T05:11:40.322Z,19.50
2023-01-26T05:12:44.208Z,17.00
2023-01-26T05:13:48.016Z,16.00
2023-01-26T05:14:51.816Z,16.50
2023-01-26T05:15:55.433Z,16.50
2023-01-26T05:16:59.244Z,17.00
2023-01-26T05:18:03.172Z,18.50
2023-01-26T05:19:07.297Z,17.25
2023-01-26T05:20:11.471Z,15.50
2023-01-26T05:21:15.597Z,16.00
2023-01-26T05:22:19.426Z,18.00
2023-01-26T05:23:23.053Z,17.25
2023-01-26T05:24:26.551Z,15.00
2023-01-26T05:25:30.660Z,16.25
2023-01-26T05:26:34.493Z,16.50
2023-01-26T05:27:38.357Z,17.00
2023-01-26T05:28:41.999Z,17.75
2023-01-26T05:29:45.621Z,17.00
2023-01-26T05:30:49.150Z,17.50
2023-01-26T05:31:53.069Z,20.00
2023-01-26T05:32:56.913Z,20.00
2023-01-26T05:34:00.657Z,18.50
2023-01-26T05:35:04.174Z,18.25
2023-01-26T05:36:07.690Z,19.25
2023-01-26T05:37:13.655Z,18.50
2023-01-26T05:38:16.520Z,17.75
2023-01-26T05:39:20.406Z,19.75
2023-01-26T05:40:24.154Z,20.50
2023-01-26T05:41:27.778Z,19.00
2023-01-26T05:42:31.337Z,19.00
2023-01-26T05:43:34.877Z,19.50
2023-01-26T05:44:38.470Z,20.00
2023-01-26T05:45:42.245Z,20.00
2023-01-26T05:46:45.678Z,19.25
2023-01-26T05:47:49.493Z,19.75
2023-01-26T05:48:53.142Z,21.00
2023-01-26T05:49:56.658Z,21.00
2023-01-26T05:51:01.780Z,22.75
2023-01-26T05:52:04.985Z,23.75
2023-01-26T05:53:08.499Z,21.50
2023-01-26T05:54:12.270Z,21.50
2023-01-26T05:55:15.896Z,22.25
2023-01-26T05:56:19.544Z,22.00
2023-01-26T05:57:23.038Z,21.50
2023-01-26T05:58:26.658Z,23.33
2023-01-26T05:59:30.080Z,24.25
2023-01-26T06:00:33.706Z,24.00
2023-01-26T06:01:37.293Z,21.75
2023-01-26T06:02:40.928Z,23.00
2023-01-26T06:03:44.375Z,24.25
2023-01-26T06:04:47.943Z,21.00
2023-01-26T06:05:51.764Z,21.25
2023-01-26T06:06:55.153Z,21.50
2023-01-26T06:07:58.678Z,21.00
2023-01-26T06:09:02.283Z,23.00
2023-01-26T06:10:05.824Z,23.00
2023-01-26T06:11:09.496Z,23.00
2023-01-26T06:12:13.023Z,22.00
2023-01-26T06:13:16.582Z,22.75
2023-01-26T06:14:20.013Z,26.25
2023-01-26T06:15:23.429Z,25.25
2023-01-26T06:16:27.195Z,23.50
2023-01-26T06:17:30.791Z,24.00
2023-01-26T06:18:34.303Z,24.00
2023-01-26T06:19:38.119Z,22.75
2023-01-26T06:20:44.026Z,25.00
2023-01-26T06:21:46.526Z,28.00
2023-01-26T06:22:50.274Z,28.00
2023-01-26T06:23:54.922Z,25.75
2023-01-26T06:24:58.497Z,25.00
2023-01-26T06:26:02.520Z,25.00
2023-01-26T06:27:06.198Z,24.25
2023-01-26T06:28:09.981Z,27.25
2023-01-26T06:29:13.728Z,27.50
2023-01-26T06:30:17.906Z,24.25
2023-01-26T06:31:21.869Z,25.00
2023-01-26T06:32:25.618Z,25.50
2023-01-26T06:33:29.294Z,25.00
2023-01-26T06:34:32.747Z,23.50
2023-01-26T06:35:37.296Z,25.25
2023-01-26T06:36:41.040Z,25.50
2023-01-26T06:37:45.007Z,24.50
2023-01-26T06:38:48.826Z,22.00
2023-01-26T06:39:52.251Z,22.50
2023-01-26T06:40:55.746Z,23.00
2023-01-26T06:41:59.350Z,20.50
2023-01-26T06:43:03.253Z,19.00
2023-01-26T06:44:06.814Z,19.00
2023-01-26T06:45:10.421Z,23.00
2023-01-26T06:46:14.196Z,21.00
2023-01-26T06:47:17.776Z,19.50
2023-01-26T06:48:21.552Z,20.00
2023-01-26T06:49:25.684Z,19.25
2023-01-26T06:50:32.225Z,19.25
2023-01-26T06:51:36.044Z,19.50
2023-01-26T06:52:41.437Z,19.50
2023-01-26T06:53:44.658Z,22.00
2023-01-26T06:54:48.125Z,20.25
2023-01-26T06:55:51.683Z,17.75
2023-01-26T06:56:55.490Z,17.75
2023-01-26T06:57:59.176Z,17.75
2023-01-26T06:59:03.069Z,17.00
2023-01-26T07:00:06.778Z,15.50
2023-01-26T07:01:10.528Z,17.50
2023-01-26T07:02:14.049Z,19.00
2023-01-26T07:03:17.728Z,15.75
2023-01-26T07:04:21.687Z,17.50
2023-01-26T07:05:25.407Z,17.00
2023-01-26T07:06:29.037Z,15.25
2023-01-26T07:07:32.765Z,15.50
2023-01-26T07:08:36.323Z,15.50
2023-01-26T07:09:39.994Z,16.25
2023-01-26T07:10:43.698Z,14.50
2023-01-26T07:11:47.448Z,13.00
2023-01-26T07:12:51.249Z,12.00
2023-01-26T07:13:55.137Z,12.50
2023-01-26T07:14:58.828Z,13.50
2023-01-26T07:16:02.708Z,13.00
2023-01-26T07:17:06.251Z,12.25
2023-01-26T07:18:09.716Z,11.00
2023-01-26T07:19:13.137Z,11.50
2023-01-26T07:20:16.721Z,12.00
2023-01-26T07:21:20.253Z,11.75
2023-01-26T07:22:23.824Z,11.50
2023-01-26T07:23:27.310Z,12.25
2023-01-26T07:24:30.830Z,12.50
2023-01-26T07:25:34.298Z,11.50
2023-01-26T07:26:37.828Z,12.50
2023-01-26T07:27:41.534Z,11.00
2023-01-26T07:28:45.069Z,11.25
2023-01-26T07:29:48.610Z,11.75
2023-01-26T07:30:52.072Z,12.50
2023-01-26T07:31:55.611Z,12.20
2023-01-26T07:32:59.366Z,12.00
2023-01-26T07:34:03.057Z,11.25
2023-01-26T07:35:06.527Z,12.50
2023-01-26T07:36:10.182Z,13.00
2023-01-26T07:37:13.919Z,12.75
2023-01-26T07:38:17.426Z,13.00
2023-01-26T07:39:20.972Z,12.25
2023-01-26T07:40:24.692Z,11.75
2023-01-26T07:41:28.168Z,10.50
2023-01-26T07:42:31.762Z,10.00
2023-01-26T07:43:35.521Z,11.50
2023-01-26T07:44:39.313Z,14.00
2023-01-26T07:45:43.040Z,13.00
2023-01-26T07:46:47.083Z,10.75
2023-01-26T07:47:50.631Z,10.75
2023-01-26T07:48:54.227Z,10.75
2023-01-26T07:49:58.728Z,10.25
2023-01-26T07:51:02.579Z,9.75
2023-01-26T07:52:06.626Z,10.50
2023-01-26T07:53:10.416Z,12.00
2023-01-26T07:54:13.857Z,11.00
2023-01-26T07:55:17.481Z,9.50
2023-01-26T07:56:21.386Z,11.75
2023-01-26T07:57:25.373Z,11.00
2023-01-26T07:58:29.121Z,10.00
2023-01-26T07:59:32.948Z,11.75
2023-01-26T08:00:36.451Z,12.00
2023-01-26T08:01:40.248Z,11.00
2023-01-26T08:02:44.262Z,11.00
2023-01-26T08:03:47.720Z,10.75
2023-01-26T08:04:51.206Z,11.00
2023-01-26T08:05:54.687Z,11.50
2023-01-26T08:06:58.242Z,11.50
2023-01-26T08:08:01.899Z,13.00
2023-01-26T08:09:05.368Z,13.75
2023-01-26T08:10:09.475Z,12.50
2023-01-26T08:11:13.278Z,11.00
2023-01-26T08:12:17.102Z,10.00
2023-01-26T08:13:33.736Z,9.00
2023-01-26T08:14:26.874Z,9.00
2023-01-26T08:15:30.233Z,10.00
2023-01-26T08:16:33.905Z,10.50
2023-01-26T08:17:37.487Z,10.50
2023-01-26T08:18:41.134Z,9.50
2023-01-26T08:19:44.687Z,9.25
2023-01-26T08:20:48.952Z,9.50
2023-01-26T08:21:52.561Z,10.50
2023-01-26T08:22:56.193Z,13.50
2023-01-26T08:23:59.958Z,17.50
2023-01-26T08:25:04.042Z,15.50
2023-01-26T08:26:07.987Z,12.50
2023-01-26T08:27:11.632Z,12.50
2023-01-26T08:28:15.485Z,11.25
2023-01-26T08:29:19.099Z,11.50
2023-01-26T08:30:22.552Z,12.60
2023-01-26T08:31:26.239Z,9.50
2023-01-26T08:32:30.134Z,9.50
2023-01-26T08:33:34.049Z,10.50
2023-01-26T08:34:37.625Z,9.00
2023-01-26T08:35:41.128Z,8.50
2023-01-26T08:36:44.855Z,7.50
2023-01-26T08:37:48.655Z,8.75
2023-01-26T08:38:52.410Z,9.00
2023-01-26T08:39:55.956Z,9.00
2023-01-26T08:40:59.397Z,9.00
2023-01-26T08:42:03.272Z,9.50
2023-01-26T08:43:06.844Z,9.25
2023-01-26T08:44:10.738Z,11.00
2023-01-26T08:45:14.217Z,11.00
2023-01-26T08:46:17.784Z,10.00
2023-01-26T08:47:21.309Z,10.50
2023-01-26T08:48:24.758Z,10.00
2023-01-26T08:49:28.639Z,11.00
2023-01-26T08:50:32.213Z,13.25
2023-01-26T08:51:35.772Z,11.00
2023-01-26T08:52:39.357Z,11.50
2023-01-26T08:53:42.896Z,13.25
2023-01-26T08:54:46.604Z,13.50
2023-01-26T08:55:50.127Z,11.75
2023-01-26T08:56:53.711Z,10.00
2023-01-26T08:57:57.410Z,10.50
2023-01-26T08:59:00.868Z,11.00
2023-01-26T09:00:04.503Z,9.75
2023-01-26T09:01:08.422Z,10.75
2023-01-26T09:02:12.018Z,11.00
2023-01-26T09:03:15.757Z,9.50
2023-01-26T09:04:19.249Z,8.50
2023-01-26T09:05:22.960Z,10.25
2023-01-26T09:06:26.727Z,11.00
2023-01-26T09:07:30.165Z,8.50
2023-01-26T09:08:33.853Z,8.50
2023-01-26T09:09:37.588Z,8.50
2023-01-26T09:10:41.456Z,8.50
2023-01-26T09:11:45.311Z,10.50
2023-01-26T09:12:48.748Z,10.50
2023-01-26T09:13:52.283Z,11.00
2023-01-26T09:14:56.144Z,10.75
2023-01-26T09:15:59.947Z,9.50
2023-01-26T09:17:03.739Z,8.75
2023-01-26T09:18:07.289Z,10.00
2023-01-26T09:19:10.711Z,12.25
2023-01-26T09:20:14.287Z,11.50
2023-01-26T09:21:17.885Z,11.75
2023-01-26T09:22:21.409Z,12.00
2023-01-26T09:23:25.060Z,12.50
2023-01-26T09:24:28.578Z,13.00
2023-01-26T09:25:34.796Z,13.33
2023-01-26T09:26:38.349Z,13.00
2023-01-26T09:27:42.023Z,12.75
2023-01-26T09:28:45.625Z,12.75
2023-01-26T09:29:49.196Z,12.50
2023-01-26T09:30:53.036Z,12.25
2023-01-26T09:31:56.990Z,14.00
2023-01-26T09:33:00.940Z,16.00
2023-01-26T09:34:04.624Z,16.75
2023-01-26T09:35:08.240Z,18.00
2023-01-26T09:36:12.009Z,17.50
2023-01-26T09:37:15.934Z,15.00
2023-01-26T09:38:19.390Z,15.50
2023-01-26T09:39:23.171Z,17.50
2023-01-26T09:40:26.812Z,16.25
2023-01-26T09:41:30.340Z,14.00
2023-01-26T09:42:34.320Z,14.50
2023-01-26T09:43:38.007Z,14.25
2023-01-26T09:44:41.687Z,14.50
2023-01-26T09:45:45.318Z,15.00
2023-01-26T09:46:49.051Z,13.75
2023-01-26T09:47:52.936Z,15.25
2023-01-26T09:48:56.540Z,13.25
2023-01-26T09:50:00.881Z,13.75
2023-01-26T09:51:04.646Z,15.00
2023-01-26T09:52:08.114Z,12.75
2023-01-26T09:53:11.803Z,14.00
2023-01-26T09:54:15.325Z,15.00
2023-01-26T09:55:19.033Z,15.20
2023-01-26T09:56:22.573Z,15.75
2023-01-26T09:57:26.174Z,15.00
2023-01-26T09:58:32.782Z,13.50
2023-01-26T09:59:36.550Z,12.50
2023-01-26T10:00:40.445Z,11.75
2023-01-26T10:01:44.283Z,14.00
2023-01-26T10:02:47.874Z,14.50
2023-01-26T10:03:51.394Z,14.50
2023-01-26T10:04:55.224Z,13.00
2023-01-26T10:05:59.023Z,12.50
2023-01-26T10:07:02.840Z,12.00
2023-01-26T10:08:06.364Z,13.00
2023-01-26T10:09:09.822Z,13.75
2023-01-26T10:10:13.295Z,14.00
2023-01-26T10:11:16.866Z,13.00
2023-01-26T10:12:20.566Z,12.75
2023-01-26T10:13:24.314Z,12.50
2023-01-26T10:14:27.940Z,11.25
2023-01-26T10:15:31.513Z,14.00
2023-01-26T10:16:35.081Z,14.00
2023-01-26T10:17:38.652Z,14.50
2023-01-26T10:18:42.091Z,13.00
2023-01-26T10:19:46.015Z,13.75
2023-01-26T10:20:49.562Z,18.00
2023-01-26T10:21:53.531Z,15.25
2023-01-26T10:22:57.551Z,14.00
2023-01-26T10:24:01.065Z,14.50
2023-01-26T10:25:04.647Z,15.75
2023-01-26T10:26:08.386Z,15.00
2023-01-26T10:27:12.209Z,13.75
2023-01-26T10:28:16.037Z,13.00
2023-01-26T10:29:19.645Z,14.50
2023-01-26T10:30:23.432Z,15.50
2023-01-26T10:31:27.540Z,14.00
2023-01-26T10:32:31.497Z,14.00
2023-01-26T10:33:35.345Z,16.25
2023-01-26T10:34:39.309Z,18.25
2023-01-26T10:35:43.119Z,19.50
2023-01-26T10:36:46.695Z,17.00
2023-01-26T10:37:50.484Z,19.50
2023-01-26T10:38:54.272Z,20.25
2023-01-26T10:39:58.090Z,21.50
2023-01-26T10:41:01.578Z,22.00
2023-01-26T10:42:05.047Z,22.00
2023-01-26T10:43:08.545Z,23.25
2023-01-26T10:44:12.023Z,24.00
2023-01-26T10:45:15.642Z,25.50
2023-01-26T10:46:19.529Z,24.00
2023-01-26T10:47:22.944Z,27.00
2023-01-26T10:48:26.630Z,27.00
2023-01-26T10:49:30.839Z,23.25
2023-01-26T10:50:34.460Z,21.50
2023-01-26T10:51:37.938Z,22.25
2023-01-26T10:52:41.564Z,22.50
2023-01-26T10:53:45.250Z,19.75
2023-01-26T10:54:48.772Z,19.00
2023-01-26T10:55:52.262Z,20.25
2023-01-26T10:56:55.875Z,20.50
2023-01-26T10:57:59.476Z,19.25
2023-01-26T10:59:03.184Z,18.75
2023-01-26T11:00:06.795Z,18.75
2023-01-26T11:01:10.502Z,19.50
2023-01-26T11:02:14.117Z,16.25
2023-01-26T11:03:17.580Z,17.25
2023-01-26T11:04:21.190Z,17.00
2023-01-26T11:05:24.957Z,17.50
2023-01-26T11:06:28.465Z,18.00
2023-01-26T11:07:32.094Z,14.75
2023-01-26T11:08:35.614Z,18.25
2023-01-26T11:09:39.215Z,16.25
2023-01-26T11:10:42.893Z,16.25
2023-01-26T11:11:46.526Z,18.00
2023-01-26T11:12:50.300Z,17.50
2023-01-26T11:13:54.025Z,18.50
2023-01-26T11:14:57.749Z,18.75
2023-01-26T11:16:01.275Z,19.50
2023-01-26T11:17:04.818Z,16.50
2023-01-26T11:18:08.698Z,13.00
2023-01-26T11:19:12.296Z,16.00
2023-01-26T11:20:15.932Z,16.50
2023-01-26T11:21:19.535Z,15.50
2023-01-26T11:22:23.363Z,17.25
2023-01-26T11:23:27.128Z,15.00
2023-01-26T11:24:30.663Z,16.00
2023-01-26T11:25:34.235Z,18.00
2023-01-26T11:26:37.851Z,20.00
2023-01-26T11:27:41.847Z,17.50
2023-01-26T11:28:45.713Z,14.50
2023-01-26T11:29:49.321Z,16.50
2023-01-26T11:30:52.861Z,16.25
2023-01-26T11:31:56.463Z,17.00
2023-01-26T11:33:00.366Z,16.75
2023-01-26T11:34:04.129Z,17.00
2023-01-26T11:35:07.964Z,16.50
2023-01-26T11:36:11.800Z,15.25
2023-01-26T11:37:15.626Z,15.75
2023-01-26T11:38:19.145Z,18.00
2023-01-26T11:39:22.829Z,18.50
2023-01-26T11:40:26.358Z,17.00
2023-01-26T11:41:30.128Z,16.50
2023-01-26T11:42:33.921Z,14.75
2023-01-26T11:43:37.560Z,15.00
2023-01-26T11:44:41.523Z,17.50
2023-01-26T11:45:45.450Z,20.25
2023-01-26T11:46:48.893Z,18.50
2023-01-26T11:47:52.664Z,16.50
2023-01-26T11:48:56.523Z,15.00
2023-01-26T11:50:00.059Z,14.50
2023-01-26T11:51:05.577Z,14.25
2023-01-26T11:52:08.955Z,14.50
2023-01-26T11:53:12.594Z,16.50
2023-01-26T11:54:16.455Z,17.50
2023-01-26T11:55:20.054Z,16.00
2023-01-26T11:56:23.703Z,18.00
2023-01-26T11:57:27.352Z,17.75
2023-01-26T11:58:30.962Z,16.00
2023-01-26T11:59:36.615Z,15.00
2023-01-26T12:00:39.157Z,16.75
2023-01-26T12:01:42.668Z,15.00
2023-01-26T12:02:46.251Z,14.00
2023-01-26T12:03:49.762Z,14.25
2023-01-26T12:04:53.193Z,18.25
2023-01-26T12:05:56.689Z,17.25
2023-01-26T12:07:00.260Z,17.50
2023-01-26T12:08:03.861Z,20.50
2023-01-26T12:09:07.471Z,18.50
2023-01-26T12:10:11.051Z,16.00
2023-01-26T12:11:14.524Z,15.75
2023-01-26T12:12:18.019Z,15.50
2023-01-26T12:13:21.643Z,13.50
2023-01-26T12:14:25.125Z,13.25
2023-01-26T12:15:28.817Z,14.75
2023-01-26T12:16:32.362Z,15.75
2023-01-26T12:17:35.963Z,16.50
2023-01-26T12:18:53.244Z,15.25
2023-01-26T12:19:44.575Z,14.00
2023-01-26T12:20:48.431Z,15.00
2023-01-26T12:21:52.151Z,16.00
2023-01-26T12:22:56.001Z,15.50
2023-01-26T12:23:59.544Z,15.75
2023-01-26T12:25:28.900Z,15.50
2023-01-26T12:26:08.407Z,16.00
2023-01-26T12:27:12.204Z,14.50
2023-01-26T12:28:15.750Z,13.00
2023-01-26T12:29:19.330Z,13.75
2023-01-26T12:30:22.972Z,13.75
2023-01-26T12:31:26.885Z,15.25
2023-01-26T12:32:30.876Z,16.00
2023-01-26T12:33:34.709Z,14.00
2023-01-26T12:34:38.247Z,17.00
2023-01-26T12:35:41.802Z,17.50
2023-01-26T12:36:45.942Z,16.50
2023-01-26T12:37:49.684Z,18.50
2023-01-26T12:38:53.524Z,15.25
2023-01-26T12:39:57.495Z,14.50
2023-01-26T12:41:01.057Z,15.00
2023-01-26T12:42:04.476Z,11.75
2023-01-26T12:43:08.130Z,13.50
2023-01-26T12:44:11.886Z,15.00
2023-01-26T12:45:17.519Z,14.00
2023-01-26T12:46:20.205Z,11.25
2023-01-26T12:47:23.754Z,13.50
2023-01-26T12:48:27.728Z,12.75
2023-01-26T12:49:31.741Z,11.75
2023-01-26T12:50:35.208Z,10.75
2023-01-26T12:51:38.796Z,12.00
2023-01-26T12:52:42.465Z,14.25
2023-01-26T12:53:45.950Z,13.50
2023-01-26T12:54:49.446Z,11.75
2023-01-26T12:55:52.972Z,11.25
2023-01-26T12:56:56.538Z,14.50
2023-01-26T12:58:00.073Z,17.25
2023-01-26T12:59:03.575Z,15.50
2023-01-26T13:00:07.329Z,11.75
2023-01-26T13:01:10.848Z,11.00
2023-01-26T13:02:14.577Z,11.50
2023-01-26T13:03:18.149Z,11.25
2023-01-26T13:04:21.811Z,10.25
2023-01-26T13:05:25.851Z,10.00
2023-01-26T13:06:29.351Z,13.50
2023-01-26T13:07:32.853Z,11.25
2023-01-26T13:08:36.322Z,10.50
2023-01-26T13:09:39.807Z,11.00
2023-01-26T13:10:43.554Z,13.00
2023-01-26T13:11:47.384Z,12.00
2023-01-26T13:12:51.190Z,12.50
2023-01-26T13:13:54.822Z,13.25
2023-01-26T13:14:58.403Z,13.50
2023-01-26T13:16:02.126Z,13.50
2023-01-26T13:17:05.909Z,13.25
2023-01-26T13:18:09.953Z,12.00
2023-01-26T13:19:13.507Z,12.75
2023-01-26T13:20:17.119Z,12.50
2023-01-26T13:21:20.779Z,10.50
2023-01-26T13:22:24.357Z,10.25
2023-01-26T13:23:27.819Z,11.50
2023-01-26T13:24:31.434Z,10.25
2023-01-26T13:25:34.967Z,12.00
2023-01-26T13:26:38.673Z,13.25
2023-01-26T13:27:42.208Z,11.50
2023-01-26T13:28:45.713Z,11.50
2023-01-26T13:29:49.196Z,11.50
2023-01-26T13:30:52.933Z,12.00
2023-01-26T13:31:56.876Z,11.50
2023-01-26T13:33:00.357Z,12.25
2023-01-26T13:34:03.850Z,12.50
2023-01-26T13:35:07.316Z,12.00
2023-01-26T13:36:10.802Z,9.75
2023-01-26T13:37:23.707Z,10.00
2023-01-26T13:38:29.138Z,10.00
2023-01-26T13:39:34.251Z,12.00
2023-01-26T13:40:39.059Z,10.50
2023-01-26T13:41:43.675Z,11.00
2023-01-26T13:42:47.881Z,13.75
2023-01-26T13:43:52.749Z,11.50
2023-01-26T13:44:57.433Z,8.50